createdAt,value
2024-03-05T00:00:14.974Z,8.70
2024-03-05T00:00:39.728Z,10.77
2024-03-05T00:01:03.740Z,8.00
2024-03-05T00:01:26.876Z,7.40
2024-03-05T00:01:50.330Z,7.00
2024-03-05T00:02:13.205Z,7.13
2024-03-05T00:02:37.848Z,7.57
2024-03-05T00:03:00.751Z,10.02
2024-03-05T00:03:23.789Z,8.50
2024-03-05T00:03:46.722Z,7.47
2024-03-05T00:04:09.645Z,8.55
2024-03-05T00:04:33.614Z,5.38
2024-03-05T00:04:56.734Z,8.30
2024-03-05T00:05:20.075Z,9.57
2024-03-05T00:05:43.107Z,7.82
2024-03-05T00:06:07.653Z,7.35
2024-03-05T00:06:30.556Z,6.38
2024-03-05T00:06:56.040Z,7.65
2024-03-05T00:07:19.272Z,7.70
2024-03-05T00:07:42.280Z,6.53
2024-03-05T00:08:06.645Z,7.50
2024-03-05T00:08:29.474Z,7.13
2024-03-05T00:08:52.443Z,7.10
2024-03-05T00:09:16.770Z,7.65
2024-03-05T00:09:39.697Z,6.35
2024-03-05T00:10:02.777Z,11.02
2024-03-05T00:10:25.717Z,8.68
2024-03-05T00:10:48.864Z,8.10
2024-03-05T00:11:12.230Z,9.18
2024-03-05T00:11:35.510Z,7.13
2024-03-05T00:11:58.569Z,7.90
2024-03-05T00:12:21.490Z,9.25
2024-03-05T00:12:44.365Z,10.18
2024-03-05T00:13:08.580Z,6.63
2024-03-05T00:13:31.624Z,6.97
2024-03-05T00:13:54.594Z,5.90
2024-03-05T00:14:17.650Z,8.40
2024-03-05T00:14:40.641Z,8.50
2024-03-05T00:15:06.387Z,7.03
2024-03-05T00:15:29.281Z,7.95
2024-03-05T00:15:53.585Z,9.13
2024-03-05T00:16:16.599Z,8.20
2024-03-05T00:16:39.574Z,7.28
2024-03-05T00:17:02.721Z,6.95
2024-03-05T00:17:25.776Z,8.23
2024-03-05T00:17:48.746Z,7.35
2024-03-05T00:18:11.814Z,7.82
2024-03-05T00:18:34.807Z,7.90
2024-03-05T00:18:57.705Z,10.43
2024-03-05T00:19:20.598Z,10.50
2024-03-05T00:19:43.566Z,7.93
2024-03-05T00:20:13.377Z,9.30
2024-03-05T00:20:36.318Z,8.57
2024-03-05T00:20:59.162Z,11.90
2024-03-05T00:21:22.054Z,11.20
2024-03-05T00:21:44.911Z,9.10
2024-03-05T00:22:07.824Z,7.50
2024-03-05T00:22:30.660Z,7.60
2024-03-05T00:22:53.618Z,7.00
2024-03-05T00:23:16.506Z,6.72
2024-03-05T00:23:39.623Z,8.57
2024-03-05T00:24:02.748Z,7.53
2024-03-05T00:24:27.105Z,10.40
2024-03-05T00:24:49.948Z,5.50
2024-03-05T00:25:12.923Z,6.63
2024-03-05T00:25:36.276Z,5.88
2024-03-05T00:25:59.179Z,8.20
2024-03-05T00:26:22.928Z,5.97
2024-03-05T00:26:45.766Z,7.78
2024-03-05T00:27:11.838Z,7.47
2024-03-05T00:27:34.690Z,12.77
2024-03-05T00:27:57.602Z,9.95
2024-03-05T00:28:20.548Z,7.30
2024-03-05T00:28:43.797Z,8.38
2024-03-05T00:29:08.089Z,11.15
2024-03-05T00:29:30.932Z,10.35
2024-03-05T00:29:53.854Z,9.30
2024-03-05T00:30:17.162Z,7.00
2024-03-05T00:30:40.015Z,8.50
2024-03-05T00:31:04.241Z,9.25
2024-03-05T00:31:27.377Z,7.38
2024-03-05T00:31:50.376Z,6.85
2024-03-05T00:32:13.343Z,7.25
2024-03-05T00:32:36.194Z,6.72
2024-03-05T00:32:59.211Z,6.97
2024-03-05T00:33:22.030Z,7.45
2024-03-05T00:33:44.910Z,7.97
2024-03-05T00:34:07.870Z,10.45
2024-03-05T00:34:30.782Z,10.25
2024-03-05T00:34:53.795Z,9.13
2024-03-05T00:35:16.829Z,8.93
2024-03-05T00:35:39.787Z,11.13
2024-03-05T00:36:05.034Z,7.60
2024-03-05T00:36:28.764Z,8.98
2024-03-05T00:36:51.736Z,9.27
2024-03-05T00:37:14.708Z,7.30
2024-03-05T00:37:38.292Z,8.10
2024-03-05T00:38:01.269Z,6.57
2024-03-05T00:38:29.055Z,7.47
2024-03-05T00:38:56.689Z,6.63
2024-03-05T00:39:20.238Z,8.35
2024-03-05T00:39:44.644Z,12.27
2024-03-05T00:40:10.177Z,9.10
2024-03-05T00:40:33.514Z,5.85
2024-03-05T00:40:56.562Z,8.93
2024-03-05T00:41:19.904Z,7.03
2024-03-05T00:41:43.109Z,7.00
2024-03-05T00:42:06.290Z,7.35
2024-03-05T00:42:29.125Z,8.35
2024-03-05T00:42:52.072Z,9.15
2024-03-05T00:43:15.450Z,6.85
2024-03-05T00:43:38.353Z,7.25
2024-03-05T00:44:01.419Z,4.65
2024-03-05T00:44:24.248Z,4.97
2024-03-05T00:44:47.279Z,6.53
2024-03-05T00:45:12.252Z,5.20
2024-03-05T00:45:35.158Z,6.40
2024-03-05T00:45:58.108Z,7.60
2024-03-05T00:46:22.098Z,7.00
2024-03-05T00:46:45.433Z,6.32
2024-03-05T00:47:08.351Z,6.22
2024-03-05T00:47:32.473Z,7.60
2024-03-05T00:47:55.360Z,6.25
2024-03-05T00:48:18.211Z,6.45
2024-03-05T00:48:41.140Z,7.43
2024-03-05T00:49:04.109Z,6.72
2024-03-05T00:49:27.039Z,7.05
2024-03-05T00:49:49.971Z,7.97
2024-03-05T00:50:14.910Z,7.53
2024-03-05T00:50:39.301Z,6.60
2024-03-05T00:51:02.273Z,5.05
2024-03-05T00:51:25.070Z,5.88
2024-03-05T00:51:49.031Z,8.30
2024-03-05T00:52:12.071Z,8.20
2024-03-05T00:52:35.143Z,6.97
2024-03-05T00:52:58.418Z,6.25
2024-03-05T00:53:24.114Z,7.88
2024-03-05T00:53:48.397Z,10.57
2024-03-05T00:54:12.252Z,6.38
2024-03-05T00:54:35.758Z,6.55
2024-03-05T00:55:01.173Z,6.10
2024-03-05T00:55:24.201Z,5.40
2024-03-05T00:55:47.191Z,7.20
2024-03-05T00:56:10.475Z,7.43
2024-03-05T00:56:33.432Z,6.20
2024-03-05T00:56:56.255Z,6.78
2024-03-05T00:57:19.281Z,6.57
2024-03-05T00:57:42.213Z,7.93
2024-03-05T00:58:05.652Z,5.95
2024-03-05T00:58:29.086Z,6.50
2024-03-05T00:58:52.145Z,7.15
2024-03-05T00:59:14.984Z,7.07
2024-03-05T00:59:38.809Z,7.95
2024-03-05T01:00:01.708Z,7.72
2024-03-05T01:00:26.412Z,7.43
2024-03-05T01:00:49.901Z,9.93
2024-03-05T01:01:12.928Z,12.13
2024-03-05T01:01:36.061Z,6.03
2024-03-05T01:01:59.196Z,6.00
2024-03-05T01:02:23.978Z,7.05
2024-03-05T01:02:47.094Z,7.55
2024-03-05T01:03:11.929Z,10.07
2024-03-05T01:03:35.012Z,6.22
2024-03-05T01:03:59.432Z,6.53
2024-03-05T01:04:22.315Z,6.88
2024-03-05T01:04:45.344Z,6.15
2024-03-05T01:05:11.213Z,9.35
2024-03-05T01:05:34.308Z,7.38
2024-03-05T01:05:57.709Z,6.15
2024-03-05T01:06:20.505Z,5.72
2024-03-05T01:06:45.113Z,9.02
2024-03-05T01:07:08.331Z,8.25
2024-03-05T01:07:31.258Z,7.00
2024-03-05T01:07:54.117Z,6.70
2024-03-05T01:08:17.166Z,5.88
2024-03-05T01:08:39.954Z,7.53
2024-03-05T01:09:03.008Z,9.15
2024-03-05T01:09:28.875Z,5.55
2024-03-05T01:09:52.062Z,6.85
2024-03-05T01:10:16.327Z,5.93
2024-03-05T01:10:39.968Z,5.75
2024-03-05T01:11:03.539Z,5.55
2024-03-05T01:11:29.229Z,7.13
2024-03-05T01:11:53.503Z,9.05
2024-03-05T01:12:16.428Z,8.77
2024-03-05T01:12:41.500Z,8.50
2024-03-05T01:13:04.625Z,7.75
2024-03-05T01:13:28.325Z,7.30
2024-03-05T01:13:53.510Z,8.43
2024-03-05T01:14:16.431Z,7.10
2024-03-05T01:14:39.250Z,7.70
2024-03-05T01:15:02.170Z,8.18
2024-03-05T01:15:27.359Z,7.97
2024-03-05T01:15:51.076Z,7.03
2024-03-05T01:16:16.796Z,6.85
2024-03-05T01:16:39.659Z,9.98
2024-03-05T01:17:05.892Z,8.30
2024-03-05T01:17:28.937Z,8.15
2024-03-05T01:17:54.714Z,7.93
2024-03-05T01:18:17.583Z,10.95
2024-03-05T01:18:40.364Z,9.13
2024-03-05T01:19:05.532Z,6.78
2024-03-05T01:19:30.545Z,8.32
2024-03-05T01:19:53.432Z,7.53
2024-03-05T01:20:21.576Z,6.13
2024-03-05T01:20:44.489Z,6.03
2024-03-05T01:21:09.673Z,5.47
2024-03-05T01:21:32.658Z,9.27
2024-03-05T01:21:57.865Z,8.35
2024-03-05T01:22:20.694Z,10.18
2024-03-05T01:22:45.974Z,8.18
2024-03-05T01:23:11.307Z,8.52
2024-03-05T01:23:34.642Z,6.43
2024-03-05T01:23:57.691Z,6.65
2024-03-05T01:24:22.928Z,5.03
2024-03-05T01:24:45.811Z,5.97
2024-03-05T01:25:11.447Z,8.18
2024-03-05T01:25:35.900Z,9.23
2024-03-05T01:26:01.086Z,8.77
2024-03-05T01:26:24.659Z,6.70
2024-03-05T01:26:50.424Z,5.80
2024-03-05T01:27:13.319Z,6.28
2024-03-05T01:27:38.518Z,6.15
2024-03-05T01:28:01.440Z,5.75
2024-03-05T01:28:27.161Z,7.03
2024-03-05T01:28:49.993Z,7.30
2024-03-05T01:29:17.502Z,7.32
2024-03-05T01:29:42.993Z,8.10
2024-03-05T01:30:09.976Z,8.93
2024-03-05T01:30:33.130Z,6.93
2024-03-05T01:30:58.189Z,6.13
2024-03-05T01:31:23.284Z,6.47
2024-03-05T01:31:46.374Z,5.90
2024-03-05T01:32:11.413Z,6.03
2024-03-05T01:32:35.790Z,6.82
2024-03-05T01:32:58.865Z,9.85
2024-03-05T01:33:23.849Z,8.35
2024-03-05T01:33:48.156Z,8.52
2024-03-05T01:34:11.021Z,5.10
2024-03-05T01:34:38.238Z,7.20
2024-03-05T01:35:01.710Z,7.93
2024-03-05T01:35:26.890Z,7.05
2024-03-05T01:35:49.827Z,7.65
2024-03-05T01:36:12.801Z,11.23
2024-03-05T01:36:35.716Z,10.68
2024-03-05T01:36:59.061Z,7.43
2024-03-05T01:37:22.278Z,7.57
2024-03-05T01:37:48.506Z,8.40
2024-03-05T01:38:11.314Z,5.40
2024-03-05T01:38:34.846Z,5.68
2024-03-05T01:39:00.121Z,8.40
2024-03-05T01:39:23.821Z,8.80
2024-03-05T01:39:49.165Z,7.00
2024-03-05T01:40:12.446Z,6.72
2024-03-05T01:40:36.841Z,5.55
2024-03-05T01:40:59.913Z,6.78
2024-03-05T01:41:25.919Z,4.93
2024-03-05T01:41:48.700Z,7.40
2024-03-05T01:42:13.825Z,6.13
2024-03-05T01:42:36.789Z,5.32
2024-03-05T01:42:59.730Z,8.35
2024-03-05T01:43:25.162Z,7.85
2024-03-05T01:43:48.057Z,11.23
2024-03-05T01:44:13.123Z,7.97
2024-03-05T01:44:36.006Z,4.10
2024-03-05T01:45:04.842Z,7.25
2024-03-05T01:45:27.764Z,6.07
2024-03-05T01:45:54.188Z,8.85
2024-03-05T01:46:18.262Z,7.75
2024-03-05T01:46:41.255Z,5.93
2024-03-05T01:47:04.359Z,6.75
2024-03-05T01:47:29.573Z,6.35
2024-03-05T01:47:52.502Z,6.75
2024-03-05T01:48:17.507Z,7.18
2024-03-05T01:48:40.399Z,7.28
2024-03-05T01:49:03.292Z,9.45
2024-03-05T01:49:28.768Z,9.68
2024-03-05T01:49:51.743Z,7.25
2024-03-05T01:50:16.787Z,6.45
2024-03-05T01:50:39.801Z,7.23
2024-03-05T01:51:02.780Z,10.40
2024-03-05T01:51:25.778Z,6.90
2024-03-05T01:51:50.691Z,5.97
2024-03-05T01:52:13.651Z,6.82
2024-03-05T01:52:37.376Z,9.77
2024-03-05T01:53:02.522Z,7.80
2024-03-05T01:53:25.277Z,6.88
2024-03-05T01:53:50.581Z,5.30
2024-03-05T01:54:13.572Z,8.18
2024-03-05T01:54:36.503Z,9.25
2024-03-05T01:55:05.484Z,8.02
2024-03-05T01:55:28.466Z,6.97
2024-03-05T01:55:55.324Z,6.35
2024-03-05T01:56:18.701Z,5.65
2024-03-05T01:56:43.585Z,5.30
2024-03-05T01:57:06.489Z,6.38
2024-03-05T01:57:29.255Z,9.02
2024-03-05T01:57:54.412Z,7.35
2024-03-05T01:58:19.289Z,8.40
2024-03-05T01:58:44.335Z,5.57
2024-03-05T01:59:07.417Z,7.57
2024-03-05T01:59:32.870Z,6.95
2024-03-05T01:59:55.629Z,6.93
2024-03-05T02:00:21.829Z,6.68
2024-03-05T02:00:45.911Z,7.60
2024-03-05T02:01:08.861Z,5.72
2024-03-05T02:01:31.849Z,6.75
2024-03-05T02:01:55.141Z,10.00
2024-03-05T02:02:20.403Z,7.05
2024-03-05T02:02:44.272Z,9.07
2024-03-05T02:03:09.776Z,5.82
2024-03-05T02:03:33.375Z,8.02
2024-03-05T02:03:58.607Z,5.78
2024-03-05T02:04:21.610Z,5.85
2024-03-05T02:04:44.529Z,6.45
2024-03-05T02:05:09.921Z,7.15
2024-03-05T02:05:34.153Z,6.20
2024-03-05T02:05:57.438Z,6.90
2024-03-05T02:06:20.321Z,7.97
2024-03-05T02:06:43.721Z,6.57
2024-03-05T02:07:13.535Z,7.18
2024-03-05T02:07:39.379Z,7.57
2024-03-05T02:08:04.430Z,6.53
2024-03-05T02:08:27.513Z,10.05
2024-03-05T02:08:50.373Z,8.05
2024-03-05T02:09:13.200Z,6.35
2024-03-05T02:09:36.024Z,6.13
2024-03-05T02:09:59.834Z,9.02
2024-03-05T02:10:23.123Z,6.70
2024-03-05T02:10:48.883Z,7.18
2024-03-05T02:11:15.508Z,5.75
2024-03-05T02:11:43.211Z,6.75
2024-03-05T02:12:12.448Z,9.15
2024-03-05T02:12:35.742Z,6.28
2024-03-05T02:12:58.647Z,6.50
2024-03-05T02:13:21.501Z,7.28
2024-03-05T02:13:44.332Z,7.93
2024-03-05T02:14:08.879Z,6.05
2024-03-05T02:14:32.286Z,7.07
2024-03-05T02:14:55.137Z,8.80
2024-03-05T02:15:20.208Z,10.73
2024-03-05T02:15:43.088Z,9.05
2024-03-05T02:16:09.330Z,9.18
2024-03-05T02:16:32.246Z,11.05
2024-03-05T02:16:58.066Z,9.52
2024-03-05T02:17:21.137Z,11.57
2024-03-05T02:17:44.018Z,11.15
2024-03-05T02:18:09.376Z,11.70
2024-03-05T02:18:32.273Z,9.38
2024-03-05T02:18:55.071Z,12.05
2024-03-05T02:19:18.222Z,10.05
2024-03-05T02:19:47.336Z,12.23
2024-03-05T02:20:15.148Z,9.30
2024-03-05T02:20:38.052Z,10.73
2024-03-05T02:21:03.273Z,12.38
2024-03-05T02:21:26.141Z,12.18
2024-03-05T02:21:49.405Z,10.93
2024-03-05T02:22:12.505Z,13.45
2024-03-05T02:22:36.149Z,12.07
2024-03-05T02:23:03.481Z,8.98
2024-03-05T02:23:26.658Z,8.95
2024-03-05T02:23:49.473Z,9.23
2024-03-05T02:24:12.618Z,10.93
2024-03-05T02:24:35.534Z,10.55
2024-03-05T02:24:58.332Z,11.80
2024-03-05T02:25:21.998Z,12.05
2024-03-05T02:25:44.990Z,11.70
2024-03-05T02:26:08.260Z,10.32
2024-03-05T02:26:32.881Z,11.60
2024-03-05T02:26:55.683Z,10.15
2024-03-05T02:27:23.926Z,11.27
2024-03-05T02:27:50.870Z,12.45
2024-03-05T02:28:13.709Z,9.40
2024-03-05T02:28:39.986Z,11.27
2024-03-05T02:29:02.993Z,9.02
2024-03-05T02:29:25.805Z,9.02
2024-03-05T02:29:49.180Z,9.23
2024-03-05T02:30:14.404Z,9.25
2024-03-05T02:30:37.489Z,10.80
2024-03-05T02:31:00.253Z,13.68
2024-03-05T02:31:23.061Z,9.35
2024-03-05T02:31:48.103Z,8.80
2024-03-05T02:32:11.057Z,9.48
2024-03-05T02:32:34.001Z,12.02
2024-03-05T02:32:58.281Z,9.70
2024-03-05T02:33:23.543Z,9.38
2024-03-05T02:33:46.394Z,12.60
2024-03-05T02:34:09.258Z,11.25
2024-03-05T02:34:32.128Z,12.00
2024-03-05T02:34:55.761Z,10.77
2024-03-05T02:35:19.788Z,12.68
2024-03-05T02:35:42.608Z,12.20
2024-03-05T02:36:09.716Z,11.90
2024-03-05T02:36:32.898Z,11.88
2024-03-05T02:36:55.750Z,11.75
2024-03-05T02:37:18.999Z,12.35
2024-03-05T02:37:42.138Z,10.52
2024-03-05T02:38:07.485Z,10.88
2024-03-05T02:38:30.673Z,14.02
2024-03-05T02:38:53.669Z,11.80
2024-03-05T02:39:16.522Z,11.70
2024-03-05T02:39:39.410Z,12.40
2024-03-05T02:40:02.259Z,14.00
2024-03-05T02:40:26.631Z,14.13
2024-03-05T02:40:49.561Z,14.75
2024-03-05T02:41:12.528Z,10.18
2024-03-05T02:41:35.885Z,14.40
2024-03-05T02:41:59.459Z,12.52
2024-03-05T02:42:22.324Z,11.07
2024-03-05T02:42:45.844Z,11.38
2024-03-05T02:43:08.763Z,12.05
2024-03-05T02:43:31.966Z,9.40
2024-03-05T02:43:54.888Z,13.57
2024-03-05T02:44:17.756Z,12.50
2024-03-05T02:44:41.199Z,10.80
2024-03-05T02:45:07.255Z,10.35
2024-03-05T02:45:30.108Z,10.38
2024-03-05T02:45:52.909Z,10.98
2024-03-05T02:46:16.725Z,13.35
2024-03-05T02:46:39.687Z,10.98
2024-03-05T02:47:04.281Z,12.20
2024-03-05T02:47:27.195Z,11.63
2024-03-05T02:47:50.117Z,11.10
2024-03-05T02:48:13.067Z,10.57
2024-03-05T02:48:36.154Z,14.85
2024-03-05T02:49:00.994Z,14.98
2024-03-05T02:49:24.482Z,13.57
2024-03-05T02:49:47.380Z,13.10
2024-03-05T02:50:11.060Z,11.57
2024-03-05T02:50:35.797Z,10.50
2024-03-05T02:50:58.681Z,10.82
2024-03-05T02:51:23.067Z,11.18
2024-03-05T02:51:46.091Z,9.70
2024-03-05T02:52:09.824Z,9.50
2024-03-05T02:52:33.015Z,9.45
2024-03-05T02:52:57.516Z,11.15
2024-03-05T02:53:20.448Z,8.55
2024-03-05T02:53:43.385Z,11.98
2024-03-05T02:54:07.648Z,9.95
2024-03-05T02:54:30.606Z,11.82
2024-03-05T02:54:53.473Z,12.80
2024-03-05T02:55:16.484Z,9.50
2024-03-05T02:55:40.243Z,8.93
2024-03-05T02:56:04.193Z,9.27
2024-03-05T02:56:27.199Z,11.18
2024-03-05T02:56:50.798Z,10.35
2024-03-05T02:57:13.737Z,11.52
2024-03-05T02:57:38.115Z,9.10
2024-03-05T02:58:00.928Z,9.43
2024-03-05T02:58:26.212Z,9.27
2024-03-05T02:58:49.141Z,9.65
2024-03-05T02:59:11.980Z,8.98
2024-03-05T02:59:34.919Z,12.18
2024-03-05T02:59:57.856Z,9.57
2024-03-05T03:00:21.408Z,10.43
2024-03-05T03:00:44.638Z,10.23
2024-03-05T03:01:10.189Z,9.50
2024-03-05T03:01:33.234Z,9.05
2024-03-05T03:01:56.197Z,9.98
2024-03-05T03:02:21.518Z,9.32
2024-03-05T03:02:44.416Z,11.82
2024-03-05T03:03:07.303Z,13.07
2024-03-05T03:03:30.788Z,12.15
2024-03-05T03:03:56.046Z,8.57
2024-03-05T03:04:18.937Z,8.38
2024-03-05T03:04:41.933Z,10.82
2024-03-05T03:05:07.002Z,9.73
2024-03-05T03:05:29.884Z,10.68
2024-03-05T03:05:52.856Z,10.90
2024-03-05T03:06:17.512Z,12.05
2024-03-05T03:06:42.460Z,9.60
2024-03-05T03:07:05.546Z,10.10
2024-03-05T03:07:28.460Z,11.60
2024-03-05T03:07:53.177Z,12.48
2024-03-05T03:08:19.092Z,9.43
2024-03-05T03:08:41.887Z,14.60
2024-03-05T03:09:04.725Z,14.88
2024-03-05T03:09:27.606Z,12.63
2024-03-05T03:09:50.445Z,11.25
2024-03-05T03:10:13.498Z,10.93
2024-03-05T03:10:36.401Z,9.00
2024-03-05T03:10:59.552Z,11.05
2024-03-05T03:11:23.249Z,11.43
2024-03-05T03:11:49.106Z,12.02
2024-03-05T03:12:12.047Z,9.90
2024-03-05T03:12:34.893Z,11.27
2024-03-05T03:12:57.764Z,9.73
2024-03-05T03:13:21.253Z,10.40
2024-03-05T03:13:45.165Z,10.75
2024-03-05T03:14:10.137Z,9.48
2024-03-05T03:14:33.230Z,10.30
2024-03-05T03:14:56.212Z,11.38
2024-03-05T03:15:20.285Z,10.60
2024-03-05T03:15:43.254Z,10.85
2024-03-05T03:16:06.370Z,12.25
2024-03-05T03:16:29.194Z,10.45
2024-03-05T03:16:52.195Z,13.18
2024-03-05T03:17:15.421Z,16.75
2024-03-05T03:17:41.767Z,11.88
2024-03-05T03:18:06.643Z,11.48
2024-03-05T03:18:29.578Z,11.13
2024-03-05T03:18:54.810Z,8.82
2024-03-05T03:19:17.700Z,12.45
2024-03-05T03:19:40.545Z,9.20
2024-03-05T03:20:04.707Z,10.32
2024-03-05T03:20:27.599Z,10.65
2024-03-05T03:20:53.595Z,8.00
2024-03-05T03:21:17.334Z,9.98
2024-03-05T03:21:42.437Z,12.93
2024-03-05T03:22:05.711Z,13.30
2024-03-05T03:22:28.707Z,12.27
2024-03-05T03:22:54.051Z,9.50
2024-03-05T03:23:16.982Z,9.20
2024-03-05T03:23:39.891Z,10.43
2024-03-05T03:24:02.782Z,10.65
2024-03-05T03:24:25.719Z,11.07
2024-03-05T03:24:49.245Z,12.77
2024-03-05T03:25:12.590Z,10.60
2024-03-05T03:25:36.957Z,10.30
2024-03-05T03:26:00.941Z,14.07
2024-03-05T03:26:25.178Z,11.40
2024-03-05T03:26:48.021Z,8.40
2024-03-05T03:27:11.188Z,9.02
2024-03-05T03:27:34.099Z,8.73
2024-03-05T03:27:57.035Z,10.55
2024-03-05T03:28:19.896Z,11.38
2024-03-05T03:28:43.397Z,13.68
2024-03-05T03:29:12.870Z,10.43
2024-03-05T03:29:36.107Z,11.75
2024-03-05T03:29:59.322Z,12.13
2024-03-05T03:30:22.276Z,11.80
2024-03-05T03:30:45.103Z,10.35
2024-03-05T03:31:12.312Z,10.85
2024-03-05T03:31:35.222Z,11.52
2024-03-05T03:31:58.297Z,12.13
2024-03-05T03:32:23.488Z,10.38
2024-03-05T03:32:46.613Z,10.13
2024-03-05T03:33:10.005Z,12.57
2024-03-05T03:33:32.994Z,9.40
2024-03-05T03:33:57.065Z,13.30
2024-03-05T03:34:20.405Z,10.13
2024-03-05T03:34:43.369Z,11.63
2024-03-05T03:35:08.215Z,13.15
2024-03-05T03:35:31.736Z,12.63
2024-03-05T03:35:57.075Z,9.68
2024-03-05T03:36:24.916Z,8.75
2024-03-05T03:36:49.348Z,13.70
2024-03-05T03:37:14.172Z,11.88
2024-03-05T03:37:38.180Z,9.85
2024-03-05T03:38:01.996Z,10.32
2024-03-05T03:38:25.058Z,13.75
2024-03-05T03:38:48.283Z,13.27
2024-03-05T03:39:12.901Z,11.10
2024-03-05T03:39:36.091Z,13.95
2024-03-05T03:39:59.157Z,12.32
2024-03-05T03:40:22.466Z,13.38
2024-03-05T03:40:48.478Z,9.25
2024-03-05T03:41:11.412Z,10.18
2024-03-05T03:41:34.929Z,16.08
2024-03-05T03:41:57.779Z,13.73
2024-03-05T03:42:21.018Z,8.95
2024-03-05T03:42:43.784Z,13.10
2024-03-05T03:43:06.758Z,10.18
2024-03-05T03:43:29.646Z,10.05
2024-03-05T03:43:52.608Z,8.05
2024-03-05T03:44:15.565Z,10.43
2024-03-05T03:44:40.548Z,9.98
2024-03-05T03:45:03.411Z,10.57
2024-03-05T03:45:26.309Z,10.27
2024-03-05T03:45:49.389Z,12.68
2024-03-05T03:46:14.370Z,12.25
2024-03-05T03:46:37.381Z,13.35
2024-03-05T03:47:00.400Z,13.02
2024-03-05T03:47:23.287Z,10.57
2024-03-05T03:47:47.795Z,14.52
2024-03-05T03:48:11.530Z,17.00
2024-03-05T03:48:34.454Z,13.20
2024-03-05T03:48:57.980Z,11.18
2024-03-05T03:49:21.792Z,10.68
2024-03-05T03:49:52.687Z,13.35
2024-03-05T03:50:16.202Z,9.93
2024-03-05T03:50:39.076Z,12.35
2024-03-05T03:51:01.975Z,15.55
2024-03-05T03:51:24.848Z,13.48
2024-03-05T03:51:49.251Z,13.90
2024-03-05T03:52:12.067Z,12.32
2024-03-05T03:52:34.957Z,11.77
2024-03-05T03:52:58.049Z,10.50
2024-03-05T03:53:20.909Z,9.30
2024-03-05T03:53:45.292Z,12.15
2024-03-05T03:54:08.345Z,12.57
2024-03-05T03:54:31.242Z,10.77
2024-03-05T03:54:54.269Z,12.13
2024-03-05T03:55:17.462Z,12.30
2024-03-05T03:55:40.455Z,11.73
2024-03-05T03:56:03.721Z,12.13
2024-03-05T03:56:26.659Z,10.63
2024-03-05T03:56:52.215Z,12.85
2024-03-05T03:57:15.069Z,11.75
2024-03-05T03:57:38.591Z,12.23
2024-03-05T03:58:01.487Z,10.77
2024-03-05T03:58:24.912Z,10.60
2024-03-05T03:58:48.250Z,12.30
2024-03-05T03:59:11.138Z,11.23
2024-03-05T03:59:34.615Z,10.85
2024-03-05T03:59:57.969Z,10.77
2024-03-05T04:00:21.183Z,8.52
2024-03-05T04:00:46.051Z,11.75
2024-03-05T04:01:09.061Z,9.48
2024-03-05T04:01:32.949Z,9.65
2024-03-05T04:01:56.433Z,12.25
2024-03-05T04:02:19.367Z,10.63
2024-03-05T04:02:42.189Z,11.55
2024-03-05T04:03:05.760Z,10.88
2024-03-05T04:03:29.850Z,12.35
2024-03-05T04:03:52.780Z,11.85
2024-03-05T04:04:15.654Z,9.80
2024-03-05T04:04:38.618Z,9.10
2024-03-05T04:05:04.210Z,10.48
2024-03-05T04:05:27.172Z,11.60
2024-03-05T04:05:50.660Z,10.93
2024-03-05T04:06:13.499Z,10.80
2024-03-05T04:06:36.359Z,13.40
2024-03-05T04:07:01.372Z,13.95
2024-03-05T04:07:27.207Z,11.30
2024-03-05T04:07:50.359Z,13.95
2024-03-05T04:08:13.420Z,13.27
2024-03-05T04:08:36.305Z,11.98
2024-03-05T04:08:59.785Z,10.27
2024-03-05T04:09:22.941Z,10.60
2024-03-05T04:09:46.362Z,11.18
2024-03-05T04:10:11.989Z,14.05
2024-03-05T04:10:35.216Z,10.27
2024-03-05T04:10:58.165Z,11.65
2024-03-05T04:11:23.230Z,13.50
2024-03-05T04:11:47.721Z,10.20
2024-03-05T04:12:11.795Z,12.02
2024-03-05T04:12:35.174Z,9.93
2024-03-05T04:12:57.980Z,12.35
2024-03-05T04:13:20.948Z,10.07
2024-03-05T04:13:45.266Z,10.52
2024-03-05T04:14:08.320Z,10.15
2024-03-05T04:14:31.165Z,10.60
2024-03-05T04:14:54.010Z,11.30
2024-03-05T04:15:20.369Z,13.00
2024-03-05T04:15:43.867Z,10.48
2024-03-05T04:16:07.428Z,10.55
2024-03-05T04:16:30.319Z,10.00
2024-03-05T04:16:53.709Z,10.63
2024-03-05T04:17:16.865Z,10.93
2024-03-05T04:17:40.501Z,14.68
2024-03-05T04:18:04.162Z,9.77
2024-03-05T04:18:27.156Z,10.23
2024-03-05T04:18:50.039Z,11.40
2024-03-05T04:19:13.478Z,16.13
2024-03-05T04:19:37.227Z,13.57
2024-03-05T04:20:00.303Z,15.20
2024-03-05T04:20:23.236Z,12.40
2024-03-05T04:20:46.013Z,10.75
2024-03-05T04:21:08.922Z,12.18
2024-03-05T04:21:31.760Z,11.25
2024-03-05T04:21:54.631Z,11.65
2024-03-05T04:22:19.483Z,12.45
2024-03-05T04:22:42.472Z,13.73
2024-03-05T04:23:05.625Z,14.00
2024-03-05T04:23:28.516Z,11.68
2024-03-05T04:23:51.970Z,9.82
2024-03-05T04:24:15.125Z,10.15
2024-03-05T04:24:39.280Z,10.43
2024-03-05T04:25:02.124Z,9.82
2024-03-05T04:25:30.336Z,10.93
2024-03-05T04:25:59.405Z,11.40
2024-03-05T04:26:27.921Z,11.50
2024-03-05T04:26:54.146Z,13.25
2024-03-05T04:27:19.881Z,12.80
2024-03-05T04:27:47.589Z,12.95
2024-03-05T04:28:14.119Z,11.95
2024-03-05T04:28:50.612Z,9.13
2024-03-05T04:29:18.195Z,14.27
2024-03-05T04:29:43.267Z,13.38
2024-03-05T04:30:11.919Z,13.98
2024-03-05T04:30:35.027Z,10.70
2024-03-05T04:30:58.500Z,12.75
2024-03-05T04:31:22.517Z,8.40
2024-03-05T04:31:54.191Z,13.13
2024-03-05T04:32:17.942Z,10.63
2024-03-05T04:32:55.805Z,8.55
2024-03-05T04:33:22.317Z,9.88
2024-03-05T04:33:47.985Z,13.15
2024-03-05T04:34:11.730Z,12.00
2024-03-05T04:34:36.812Z,12.55
2024-03-05T04:35:02.995Z,12.48
2024-03-05T04:35:26.095Z,12.57
2024-03-05T04:35:49.345Z,13.40
2024-03-05T04:36:15.917Z,11.00
2024-03-05T04:36:39.260Z,11.32
2024-03-05T04:37:02.167Z,8.60
2024-03-05T04:37:26.952Z,10.75
2024-03-05T04:37:51.446Z,8.10
2024-03-05T04:38:14.600Z,9.35
2024-03-05T04:38:37.629Z,11.38
2024-03-05T04:39:00.446Z,10.23
2024-03-05T04:39:23.375Z,11.35
2024-03-05T04:39:47.684Z,12.30
2024-03-05T04:40:11.760Z,13.35
2024-03-05T04:40:35.021Z,11.45
2024-03-05T04:40:59.212Z,11.38
2024-03-05T04:41:22.224Z,12.13
2024-03-05T04:41:45.601Z,12.77
2024-03-05T04:42:09.252Z,11.48
2024-03-05T04:42:32.106Z,10.90
2024-03-05T04:42:55.059Z,10.52
2024-03-05T04:43:18.300Z,10.88
2024-03-05T04:43:42.374Z,11.90
2024-03-05T04:44:05.484Z,11.98
2024-03-05T04:44:30.305Z,11.95
2024-03-05T04:44:54.636Z,11.10
2024-03-05T04:45:18.957Z,9.70
2024-03-05T04:45:42.079Z,9.38
2024-03-05T04:46:05.139Z,14.55
2024-03-05T04:46:28.107Z,13.15
2024-03-05T04:46:51.116Z,12.38
2024-03-05T04:47:14.051Z,14.38
2024-03-05T04:47:38.347Z,12.82
2024-03-05T04:48:02.070Z,11.27
2024-03-05T04:48:25.191Z,13.38
2024-03-05T04:48:49.822Z,11.40
2024-03-05T04:49:12.724Z,10.20
2024-03-05T04:49:36.893Z,8.95
2024-03-05T04:49:59.890Z,11.07
2024-03-05T04:50:22.912Z,10.80
2024-03-05T04:50:45.742Z,11.32
2024-03-05T04:51:10.009Z,13.43
2024-03-05T04:51:32.938Z,13.13
2024-03-05T04:51:55.860Z,12.98
2024-03-05T04:52:19.522Z,12.25
2024-03-05T04:52:44.140Z,13.15
2024-03-05T04:53:07.221Z,14.25
2024-03-05T04:53:30.150Z,14.05
2024-03-05T04:53:52.942Z,13.45
2024-03-05T04:54:15.834Z,11.70
2024-03-05T04:54:39.070Z,10.43
2024-03-05T04:55:01.945Z,11.05
2024-03-05T04:55:25.282Z,10.73
2024-03-05T04:55:48.514Z,10.82
2024-03-05T04:56:13.663Z,8.43
2024-03-05T04:56:37.542Z,11.48
2024-03-05T04:57:01.153Z,11.38
2024-03-05T04:57:24.688Z,12.63
2024-03-05T04:57:47.480Z,14.50
2024-03-05T04:58:10.269Z,13.88
2024-03-05T04:58:33.132Z,14.60
2024-03-05T04:58:56.068Z,14.80
2024-03-05T04:59:19.228Z,14.05
2024-03-05T04:59:42.740Z,13.00
2024-03-05T05:00:21.011Z,15.13
2024-03-05T05:00:45.216Z,18.13
2024-03-05T05:01:08.127Z,15.30
2024-03-05T05:01:31.074Z,12.00
2024-03-05T05:01:54.050Z,13.65
2024-03-05T05:02:16.925Z,13.40
2024-03-05T05:02:39.720Z,16.63
2024-03-05T05:03:02.553Z,15.00
2024-03-05T05:03:25.975Z,14.07
2024-03-05T05:03:48.781Z,14.00
2024-03-05T05:04:11.657Z,15.70
2024-03-05T05:04:39.058Z,13.70
2024-03-05T05:05:05.034Z,11.18
2024-03-05T05:05:28.111Z,12.50
2024-03-05T05:05:51.210Z,13.40
2024-03-05T05:06:16.695Z,13.18
2024-03-05T05:06:39.866Z,11.27
2024-03-05T05:07:02.725Z,11.85
2024-03-05T05:07:25.722Z,12.35
2024-03-05T05:07:50.209Z,10.05
2024-03-05T05:08:13.111Z,11.50
2024-03-05T05:08:36.637Z,15.82
2024-03-05T05:08:59.611Z,14.75
2024-03-05T05:09:23.896Z,13.57
2024-03-05T05:09:46.907Z,14.48
2024-03-05T05:10:10.458Z,13.35
2024-03-05T05:10:34.230Z,12.27
2024-03-05T05:10:57.313Z,11.50
2024-03-05T05:11:21.064Z,13.93
2024-03-05T05:11:43.996Z,11.95
2024-03-05T05:12:07.236Z,13.15